Scottish Airport Reports

Civil airfields updated at H+20 and H+50
RAF airfields updated at H+50 only

EGPD - Aberdeen
Distance from station: NNE 19mi, 31km
Updated: 20/08/2018 13:50
Overcast
Overcast
 Wind from NE
Wind: NE 7 mph , 11 km/h
Temperature: 15°C
Dew Point: 12°C
Humidity: 82%
Barometer: 1019 hPa
Clouds: Overcast
Visibility: 6 miles , 10 km
Cloud details: Partly cloudy 1500 ft
Mostly cloudy 2000 ft
Overcast 3400 ft
2018/08/20 12:50 EGPD 201250Z AUTO 04006KT 010V090 9999 SCT015 BKN020 OVC034 15/12 Q1019 NOSIG
EGPN - Dundee
Distance from station: SW 41mi, 66km
Updated: 20/08/2018 14:20
Few Clouds
Few Clouds
 Wind from calm
Wind: Calm
Temperature: 18°C
Dew Point: 14°C
Humidity: 78%
Barometer: 1019 hPa
Clouds: Few Clouds
Visibility: 6 miles , 10 km
Cloud details: Few Clouds 2500 ft
2018/08/20 13:20 EGPN 201320Z 00000KT 9999 FEW025 18/14 Q1019
 
EGQS - RAF Lossiemouth
Distance from station: NNW 63mi, 102km
Updated: 20/08/2018 13:50
Overcast
Overcast
 Wind from N
Wind: N 7 mph , 11 km/h
Temperature: 16°C
Dew Point: 8°C
Humidity: 59%
Barometer: 1019 hPa
Clouds: Overcast
Visibility: 6 miles , 10 km
Cloud details: Few Clouds 3500 ft
Partly cloudy 5000 ft
Overcast 30000 ft
2018/08/20 12:50 EGQS 201250Z 01006KT 9999 FEW035 SCT050 OVC300 16/08 Q1019 BLU NOSIG
EGPE - Inverness
Distance from station: WNW 73mi, 117km
Updated: 20/08/2018 14:20
Partly cloudy
Partly cloudy
 Wind from NNE
Wind: NNE 8 mph , 13 km/h
Temperature: 18°C
Dew Point: 10°C
Humidity: 60%
Barometer: 1019 hPa
Clouds: Partly cloudy
Visibility: 6 miles , 10 km
Cloud details: Few Clouds 3000 ft
Partly cloudy 4800 ft
2018/08/20 13:20 EGPE 201320Z 03007KT 350V060 9999 FEW030 SCT048 18/10 Q1019
 
EGPH - Edinburgh
Distance from station: SSW 77mi, 125km
Updated: 20/08/2018 14:20
Mostly cloudy
Mostly cloudy
 Wind from NE
Wind: NE 6 mph , 9 km/h
Temperature: 18°C
Dew Point: 13°C
Humidity: 73%
Barometer: 1018 hPa
Clouds: Mostly cloudy
Visibility: 6 miles , 10 km
Cloud details: Few Clouds 2300 ft
Mostly cloudy 3900 ft
2018/08/20 13:20 EGPH 201320Z 05005KT 340V090 9999 FEW023 BKN039 18/13 Q1018
EGPC - Wick
Distance from station: NNW 107mi, 172km
Updated: 20/08/2018 14:20
Mostly cloudy
Mostly cloudy
 Wind from varies
Wind: varies 3 mph , 6 km/h
Temperature: 15°C
Dew Point: 9°C
Humidity: 68%
Barometer: 1019 hPa
Clouds: Mostly cloudy
Visibility: 6 miles , 10 km
Cloud details: Few Clouds 2700 ft
Mostly cloudy 4000 ft
2018/08/20 13:20 EGPC 201320Z VRB03KT 9999 FEW027 BKN040 15/09 Q1019
 
EGPF - Glasgow
Distance from station: SW 107mi, 172km
Updated: 20/08/2018 14:20
Overcast
Overcast
 Wind from WNW
Wind: WNW 5 mph , 7 km/h
Clouds: Overcast
Visibility: 6 miles , 10 km
Cloud details: Mostly cloudy 3000 ft
Overcast 4700 ft
2018/08/20 13:20 EGPF 201320Z AUTO 29004KT 250V340 9999 BKN030 OVC047 17/1
EGPK - Prestwick
Distance from station: SW 130mi, 209km
Updated: 20/08/2018 13:50
Partly cloudy
Partly cloudy
 Wind from varies
Wind: varies 3 mph , 6 km/h
Temperature: 16°C
Dew Point: 11°C
Humidity: 72%
Barometer: 1019 hPa
Clouds: Partly cloudy
Visibility: 6 miles , 10 km
Cloud details: Few Clouds 1500 ft
Partly cloudy 3500 ft
2018/08/20 12:50 EGPK 201250Z VRB03KT 9999 FEW015 SCT035 16/11 Q1019
 
EGPA - Kirkwall, Orkney
Distance from station: N 140mi, 225km
Updated: 20/08/2018 14:20
Mostly cloudy
Mostly cloudy
 Wind from WNW
Wind: WNW 7 mph , 11 km/h
Temperature: 15°C
Dew Point: 9°C
Humidity: 68%
Clouds: Mostly cloudy
Visibility: 6 miles , 10 km
Cloud details: Few Clouds 2000 ft
Partly cloudy 2700 ft
Mostly cloudy 4200 ft
2018/08/20 13:20 EGPA 201320Z 29006KT 9999 FEW020 SCT027 BKN042 15/09
EGPO - Stornoway, Outer Hebrides
Distance from station: WNW 169mi, 273km
Updated: 20/08/2018 14:20
Mostly cloudy
Mostly cloudy
 Wind from varies
Wind: varies 3 mph , 6 km/h
Temperature: 14°C
Dew Point: 9°C
Humidity: 72%
Clouds: Mostly cloudy
Visibility: 6 miles , 10 km
Cloud details: Few Clouds 1400 ft
Mostly cloudy 2400 ft
Mostly cloudy 3700 ft
2018/08/20 13:20 EGPO 201320Z VRB03KT 9999 FEW014 BKN024 BKN037 14/09 Q102
 
EGPI - Islay, Inner Hebrides
Distance from station: WSW 172mi, 276km
Updated: 20/08/2018 14:20
Mostly cloudy
Mostly cloudy
 Wind from SE
Wind: SE 8 mph , 13 km/h
Temperature: 17°C
Dew Point: 13°C
Humidity: 77%
Barometer: 1019 hPa
Clouds: Mostly cloudy
Visibility: 6 miles , 10 km
Cloud details: Partly cloudy 2100 ft
Mostly cloudy 3000 ft
2018/08/20 13:20 EGPI 201320Z 14007KT 100V190 9999 SCT021 BKN030 17/13 Q1019
EGPU - Tiree, Inner Hebrides
Distance from station: W 172mi, 276km
Updated: 20/08/2018 14:20
Few Clouds
Few Clouds
 Wind from N
Wind: N 8 mph , 13 km/h
Temperature: 16°C
Dew Point: 11°C
Humidity: 72%
Barometer: 1019 hPa
Clouds: Few Clouds
Visibility: 6 miles , 10 km
Cloud details: Few Clouds 3600 ft
2018/08/20 13:20 EGPU 201320Z 36007KT 9999 FEW036 16/11 Q1019
 
EGPB - Sumburgh, Shetland
Distance from station: NNE 208mi, 332km
Updated: 20/08/2018 14:20
Mostly cloudy
Mostly cloudy
 Wind from WNW
Wind: WNW 9 mph , 15 km/h
Temperature: 14°C
Dew Point: 9°C
Humidity: 72%
Barometer: 1018 hPa
Clouds: Mostly cloudy
Visibility: 6 miles , 10 km
Cloud details: Few Clouds 2000 ft
Mostly cloudy 4800 ft
2018/08/20 13:20 EGPB 201320Z 29008KT 9999 FEW020 BKN048 14/09 Q1018
EGPM - Scatsa, Shetland
Distance from station: NNE 245mi, 392km
Updated: 20/08/2018 13:50
Few Clouds
Few Clouds
 Wind from W
Wind: W 10 mph , 17 km/h
Temperature: 14°C
Dew Point: 7°C
Humidity: 63%
Barometer: 1018 hPa
Clouds: Few Clouds
Visibility: 6 miles , 10 km
Cloud details: Few Clouds 2100 ft
2018/08/20 12:50 EGPM 201250Z 28009KT 250V330 9999 FEW021 14/07 Q1018 NOSIG
-->